• Join FlightAware (Why Join?)
  • Login
  • US Flag 
02:55AM EDT


 

Airport Tracker/Info


-or-


 

Live Flight TrackerFlight Track Log ✈ NKS434 ✈ 30-Aug-2013 ✈ MNMG / MGA - KFLL

Flight Track Log - Related Links

Times and Time Zones

All times are in EDT time to prevent confusion due to time zone crossing. See the NKS434 flight status page for this flight to view local times or setup timezone preferences in your user account.

Time Position Orientation Groundspeed Altitude Reporting Facility
EDT Latitude Longitude Course Direction KTS MPH feet Rate Location/Type
06:23AM 14.2514 -85.3204 21° North  Level Estimated
06:24AM 14.3559 -85.2779 21° North  Level Estimated
06:24AM 23.0520 -81.5290 21° North 444 511 36,000  Level FlightAware
06:25AM 14.4605 -85.2355 21° North  Level Estimated
06:25AM 23.1220 -81.5120 13° North 449 517 36,000  Level FlightAware
06:25AM 23.1930 -81.4940 13° North 448 516 36,000  Level FlightAware
06:26AM 23.2670 -81.4760 13° North 445 512 36,000  Level FlightAware
06:27AM 23.3380 -81.4590 12° North 448 516 36,000  Level FlightAware
06:27AM 23.4080 -81.4420 13° North 449 517 36,000  Level FlightAware
06:28AM 23.4810 -81.4240 13° North 449 517 36,000  Level FlightAware
06:28AM 23.5540 -81.4060 13° North 458 527 36,000  Level FlightAware
06:29AM 23.6280 -81.3880 13° North 459 528 36,000  Level FlightAware
06:29AM 23.6990 -81.3700 13° North 461 531 36,000  Level FlightAware
06:30AM 23.7750 -81.3520 12° North 463 533 36,000  Level FlightAware
06:31AM 23.8350 -81.3370 13° North 463 533 36,000  Level FlightAware
06:31AM 23.9290 -81.3130 13° North 460 529 36,000  Level FlightAware
06:32AM 24.0140 -81.2930 12° North 460 529 36,000  Level FlightAware
06:32AM 24.0760 -81.2770 13° North 462 532 36,000  Level FlightAware
06:33AM 24.1480 -81.2590 13° North 461 531 36,000  Level FlightAware
06:34AM 24.2210 -81.2410 13° North 460 529 36,000  Level FlightAware
06:34AM 24.2950 -81.2230 13° North 458 527 36,000 -180 Level FlightAware
06:35AM 24.3660 -81.2050 13° North 444 511 35,800 -720 Descending FlightAware
06:35AM 24.4350 -81.1880 13° North 446 513 35,200 -1,440 Descending FlightAware
06:36AM 24.5190 -81.1670 13° North 460 529 34,100 -2,520 Descending FlightAware
06:37AM 24.5850 -81.1500 13° North 463 533 32,300 -3,600 Descending FlightAware
06:37AM 24.6710 -81.1290 13° North 481 554 29,900 -3,660 Descending FlightAware
06:38AM 24.7360 -81.1130 13° North 480 552 28,100 -3,420 Descending FlightAware
06:38AM 24.8150 -81.0930 13° North 481 554 26,200 -3,060 Descending FlightAware
06:39AM 24.8910 -81.0740 13° North 477 549 24,500 -2,940 Descending FlightAware
06:40AM 24.9770 -81.0520 13° North 481 554 22,600 -3,000 Descending FlightAware
06:40AM 25.0440 -81.0360 12° North 478 550 21,100 -2,640 Descending FlightAware
06:41AM 25.1170 -81.0170 13° North 460 529 19,800 -2,160 Descending FlightAware
06:41AM 25.1890 -80.9990 13° North 445 512 18,600 -2,040 Descending FlightAware
06:42AM 25.2680 -80.9790 13° North 432 497 17,300 -1,860 Descending FlightAware
06:42AM 25.3370 -80.9620 13° North 429 494 16,300 -1,560 Descending FlightAware
06:43AM 25.3930 -80.9470 14° North 413 475 15,600 -1,800 Descending FlightAware
06:44AM 25.4670 -80.9280 13° North 399 459 14,200 -2,160 Descending FlightAware
06:44AM 25.4990 -80.9120 24° Northeast 386 444 13,500 -1,920 Descending FlightAware
06:45AM 25.5540 -80.8620 39° Northeast 379 436 12,300 -1,620 Descending FlightAware
06:45AM 25.5990 -80.8220 39° Northeast 361 415 11,500 -1,440 Descending FlightAware
06:46AM 25.6530 -80.7720 40° Northeast 340 391 10,500 -1,140 Descending FlightAware
06:46AM 25.6950 -80.7340 39° Northeast 318 366 10,100 -600 Descending FlightAware
06:47AM 25.7150 -80.7150 41° Northeast 302 348 10,000 -420 Descending FlightAware
06:47AM 25.7440 -80.6890 39° Northeast 291 335 9,800 -840 Descending FlightAware
06:48AM 25.7640 -80.6700 41° Northeast 281 323 9,400 -1,380 Descending FlightAware
06:48AM 25.7840 -80.6520 39° Northeast 290 334 8,900 -1,440 Descending FlightAware
06:48AM 25.8050 -80.6330 39° Northeast 280 322 8,500 -1,740 Descending FlightAware
06:49AM 25.8310 -80.6090 40° Northeast 293 337 7,600 -1,860 Descending FlightAware
06:49AM 25.8530 -80.5890 39° Northeast 293 337 7,100 -1,620 Descending FlightAware
06:49AM 25.8680 -80.5750 40° Northeast 296 341 6,700 -1,500 Descending FlightAware
06:50AM 25.8950 -80.5500 40° Northeast 294 338 6,100 -1,440 Descending FlightAware
06:50AM 25.9160 -80.5310 39° Northeast 292 336 5,600 -1,560 Descending FlightAware
06:50AM 25.9320 -80.5160 40° Northeast 290 334 5,200 -1,380 Descending FlightAware
06:51AM 25.9520 -80.4980 39° Northeast 278 320 4,800 -1,080 Descending FlightAware
06:51AM 25.9720 -80.4790 40° Northeast 275 316 4,400 -1,200 Descending FlightAware
06:51AM 25.9930 -80.4610 38° Northeast 275 316 4,000 -660 Descending FlightAware
06:52AM 26.0160 -80.4390 41° Northeast 252 290 4,000 -240 Level FlightAware
06:52AM 26.0390 -80.4140 44° Northeast 230 265 3,800 -540 Descending FlightAware
06:52AM 26.0490 -80.4010 49° Northeast 217 250 3,600 -540 Descending FlightAware
06:53AM 26.0610 -80.3840 52° Northeast 213 245 3,500 -420 Descending FlightAware
06:53AM 26.0750 -80.3620 55° Northeast 197 227 3,300 -720 Descending FlightAware
06:53AM 26.0770 -80.3530 76° East 198 228 3,100 -1,380 Descending FlightAware
06:54AM 26.0780 -80.3340 87° East 199 229 2,700 -1,080 Descending FlightAware
06:54AM 26.0780 -80.3060 90° East 198 228 2,300 -900 Descending FlightAware
06:54AM 26.0780 -80.2850 90° East 197 227 2,000 -900 Descending FlightAware
06:55AM 26.0780 -80.2710 90° East 198 228 1,800 -1,080 Descending FlightAware
06:55AM 26.0780 -80.2510 90° East 194 223 1,400 -1,080 Descending FlightAware
06:55AM 26.0770 -80.2310 93° East 181 208 1,100 -840 Descending FlightAware
06:56AM 26.0770 -80.2110 90° East 163 188 800 -840 Descending FlightAware
06:56AM 26.0770 -80.1950 90° East 150 173 500 -900 Descending FlightAware
06:57AM 26.0770 -80.1730 90° East 140 161 100 -840 Descending FlightAware
06:57AM 26.0770 -80.1670 90° East 140 161 -600 Descending FlightAware
06:57AM 26.0770 -80.1500 90° East 105 121  Level FlightAware
06:58AM 26.0770 -80.1380 90° East 105 121  Level FlightAware